createdAt,value
2023-01-29T00:01:17.087Z,5.55
2023-01-29T00:04:38.827Z,5.72
2023-01-29T00:08:03.025Z,6.43
2023-01-29T00:11:25.662Z,10.75
2023-01-29T00:14:47.513Z,4.55
2023-01-29T00:18:09.331Z,7.00
2023-01-29T00:21:32.329Z,5.28
2023-01-29T00:24:55.974Z,3.35
2023-01-29T00:28:17.638Z,4.88
2023-01-29T00:31:39.913Z,4.40
2023-01-29T00:35:01.680Z,5.65
2023-01-29T00:38:23.809Z,4.43
2023-01-29T00:42:04.582Z,5.55
2023-01-29T00:45:26.772Z,5.25
2023-01-29T00:48:48.628Z,8.02
2023-01-29T00:52:25.603Z,7.75
2023-01-29T00:55:47.709Z,6.32
2023-01-29T00:59:11.210Z,7.03
2023-01-29T01:02:50.493Z,6.15
2023-01-29T01:06:12.719Z,12.52
2023-01-29T01:09:59.753Z,12.20
2023-01-29T01:13:21.495Z,6.10
2023-01-29T01:16:46.316Z,10.60
2023-01-29T01:20:09.728Z,12.35
2023-01-29T01:23:32.077Z,7.47
2023-01-29T01:26:54.117Z,12.23
2023-01-29T01:30:17.935Z,6.22
2023-01-29T01:33:41.632Z,6.35
2023-01-29T01:37:03.650Z,10.77
2023-01-29T01:40:27.160Z,7.10
2023-01-29T01:43:51.036Z,7.50
2023-01-29T01:47:13.196Z,12.40
2023-01-29T01:50:40.706Z,8.00
2023-01-29T01:54:07.291Z,13.52
2023-01-29T01:57:32.144Z,9.88
2023-01-29T02:00:54.338Z,13.95
2023-01-29T02:04:36.546Z,17.88
2023-01-29T02:08:18.544Z,11.98
2023-01-29T02:11:40.798Z,10.32
2023-01-29T02:15:03.391Z,15.27
2023-01-29T02:18:26.671Z,9.88
2023-01-29T02:22:09.343Z,7.53
2023-01-29T02:26:11.039Z,10.65
2023-01-29T02:29:45.528Z,8.25
2023-01-29T02:33:15.442Z,8.18
2023-01-29T02:36:44.881Z,9.65
2023-01-29T02:40:20.381Z,6.03
2023-01-29T02:43:47.602Z,12.15
2023-01-29T02:47:18.024Z,9.82
2023-01-29T02:50:46.815Z,6.68
2023-01-29T02:54:14.266Z,9.02
2023-01-29T02:57:40.153Z,7.63
2023-01-29T03:01:08.661Z,10.45
2023-01-29T03:04:36.179Z,11.10
2023-01-29T03:08:02.691Z,9.15
2023-01-29T03:11:24.764Z,9.38
2023-01-29T03:15:03.525Z,8.90
2023-01-29T03:18:30.770Z,12.67
2023-01-29T03:22:00.271Z,11.10
2023-01-29T03:29:21.336Z,6.03
2023-01-29T03:32:46.191Z,7.43
2023-01-29T03:36:12.799Z,9.80
2023-01-29T03:39:38.249Z,6.93
2023-01-29T03:43:11.574Z,8.50
2023-01-29T03:46:41.197Z,13.38
2023-01-29T03:50:08.817Z,7.00
2023-01-29T03:53:36.813Z,12.60
2023-01-29T03:57:05.653Z,10.05
2023-01-29T04:00:31.889Z,6.88
2023-01-29T04:03:59.731Z,6.00
2023-01-29T04:07:24.804Z,8.48
2023-01-29T04:10:50.559Z,9.80
2023-01-29T04:14:15.318Z,11.60
2023-01-29T04:17:41.933Z,9.15
2023-01-29T04:21:07.411Z,7.10
2023-01-29T04:24:29.828Z,8.73
2023-01-29T04:28:03.852Z,9.93
2023-01-29T04:31:32.211Z,7.22
2023-01-29T04:35:02.640Z,13.73
2023-01-29T04:38:36.366Z,15.52
2023-01-29T04:42:07.037Z,13.27
2023-01-29T04:45:41.567Z,6.13
2023-01-29T04:49:18.049Z,9.40
2023-01-29T04:52:48.931Z,7.90
2023-01-29T04:56:18.386Z,7.18
2023-01-29T04:59:44.214Z,6.38
2023-01-29T05:03:09.771Z,6.07
2023-01-29T05:06:34.092Z,11.48
2023-01-29T05:09:56.924Z,10.40
2023-01-29T05:13:21.987Z,4.45
2023-01-29T05:16:46.657Z,7.45
2023-01-29T05:20:12.442Z,6.28
2023-01-29T05:23:36.087Z,8.40
2023-01-29T05:27:15.689Z,8.65
2023-01-29T05:30:39.515Z,5.75
2023-01-29T05:34:01.382Z,12.55
2023-01-29T05:37:23.297Z,16.45
2023-01-29T05:40:47.095Z,9.45
2023-01-29T05:44:09.346Z,11.60
2023-01-29T05:47:31.252Z,6.25
2023-01-29T05:50:53.510Z,8.57
2023-01-29T05:54:16.461Z,7.90
2023-01-29T05:57:41.325Z,7.13
2023-01-29T06:01:11.006Z,9.00
2023-01-29T06:04:32.796Z,11.30
2023-01-29T06:07:54.865Z,9.18
2023-01-29T06:11:18.696Z,7.80
2023-01-29T06:14:42.165Z,9.77
2023-01-29T06:18:04.147Z,8.15
2023-01-29T06:21:26.042Z,5.90
2023-01-29T06:24:47.729Z,8.75
2023-01-29T06:28:09.451Z,6.68
2023-01-29T06:31:38.786Z,9.63
2023-01-29T06:35:01.315Z,5.68
2023-01-29T06:38:23.448Z,3.20
2023-01-29T06:41:46.470Z,8.18
2023-01-29T06:45:09.513Z,8.55
2023-01-29T06:48:32.726Z,10.98
2023-01-29T06:51:56.011Z,12.88
2023-01-29T06:55:17.837Z,23.15
2023-01-29T06:58:40.284Z,13.50
2023-01-29T07:02:02.339Z,9.90
2023-01-29T07:05:25.815Z,9.73
2023-01-29T07:08:47.559Z,7.07
2023-01-29T07:12:10.159Z,12.60
2023-01-29T07:15:32.045Z,13.10
2023-01-29T07:18:53.935Z,14.82
2023-01-29T07:22:17.498Z,12.60
2023-01-29T07:25:39.428Z,15.57
2023-01-29T07:29:01.263Z,11.98
2023-01-29T07:32:22.990Z,10.75
2023-01-29T07:35:44.891Z,14.85
2023-01-29T07:39:08.362Z,10.50
2023-01-29T07:42:30.432Z,11.45
2023-01-29T07:45:52.657Z,7.47
2023-01-29T07:49:15.285Z,6.28
2023-01-29T07:52:37.359Z,7.65
2023-01-29T07:56:00.614Z,10.40
2023-01-29T07:59:22.725Z,8.88
2023-01-29T08:02:44.496Z,17.23
2023-01-29T08:06:06.777Z,12.85
2023-01-29T08:09:28.745Z,12.05
2023-01-29T08:12:57.141Z,9.43
2023-01-29T08:16:19.220Z,6.45
2023-01-29T08:19:41.465Z,12.27
2023-01-29T08:23:03.754Z,12.05
2023-01-29T08:26:26.436Z,13.98
2023-01-29T08:29:49.955Z,12.65
2023-01-29T08:33:12.246Z,25.77
2023-01-29T08:36:34.092Z,10.63
2023-01-29T08:39:55.907Z,50.03
2023-01-29T08:43:17.979Z,18.17
2023-01-29T08:46:42.028Z,9.98
2023-01-29T08:50:03.958Z,48.30
2023-01-29T08:53:26.082Z,40.50
2023-01-29T08:56:47.652Z,63.88
2023-01-29T09:00:12.670Z,40.22
2023-01-29T09:03:36.448Z,22.15
2023-01-29T09:06:58.509Z,16.60
2023-01-29T09:10:20.783Z,11.85
2023-01-29T09:13:42.491Z,10.93
2023-01-29T09:17:04.723Z,13.77
2023-01-29T09:20:28.158Z,13.68
2023-01-29T09:23:50.004Z,11.30
2023-01-29T09:27:12.027Z,8.38
2023-01-29T09:30:34.876Z,10.07
2023-01-29T09:33:56.818Z,10.02
2023-01-29T09:37:21.149Z,6.57
2023-01-29T09:40:54.978Z,7.15
2023-01-29T09:44:25.423Z,6.78
2023-01-29T09:47:48.911Z,7.63
2023-01-29T09:51:17.960Z,10.80
2023-01-29T09:54:52.378Z,8.63
2023-01-29T09:58:20.687Z,6.38
2023-01-29T10:01:52.999Z,8.77
2023-01-29T10:05:37.201Z,8.30
2023-01-29T10:09:21.416Z,8.45
2023-01-29T10:13:07.501Z,16.20
2023-01-29T10:16:42.755Z,9.93
2023-01-29T10:20:21.159Z,11.13
2023-01-29T10:23:49.609Z,12.73
2023-01-29T10:27:16.245Z,5.78
2023-01-29T10:30:47.637Z,7.60
2023-01-29T10:34:16.242Z,7.97
2023-01-29T10:37:41.998Z,7.70
2023-01-29T10:41:17.104Z,9.00
2023-01-29T10:44:52.022Z,7.53
2023-01-29T10:48:41.885Z,11.65
2023-01-29T10:52:21.179Z,9.18
2023-01-29T10:55:55.254Z,6.82
2023-01-29T10:59:30.556Z,10.00
2023-01-29T11:02:53.449Z,7.50
2023-01-29T11:06:23.793Z,4.95
2023-01-29T11:09:51.708Z,3.78
2023-01-29T11:13:16.806Z,7.38
2023-01-29T11:16:43.445Z,6.78
2023-01-29T11:20:26.599Z,6.80
2023-01-29T11:23:50.032Z,7.72
2023-01-29T11:27:17.422Z,6.07
2023-01-29T11:30:41.139Z,7.10
2023-01-29T11:34:06.910Z,10.38
2023-01-29T11:37:34.802Z,7.72
2023-01-29T11:41:09.087Z,2.90
2023-01-29T11:44:34.204Z,14.70
2023-01-29T11:47:58.320Z,11.10
2023-01-29T11:51:24.876Z,13.77
2023-01-29T11:54:50.463Z,11.98
2023-01-29T11:58:22.297Z,12.70
2023-01-29T12:01:44.067Z,37.97
2023-01-29T12:05:16.009Z,15.35
2023-01-29T12:08:40.195Z,17.85
2023-01-29T12:12:19.270Z,11.35
2023-01-29T12:15:43.977Z,20.52
2023-01-29T12:19:13.204Z,14.90
2023-01-29T12:22:43.917Z,22.55
2023-01-29T12:26:10.737Z,19.85
2023-01-29T12:29:38.842Z,30.42
2023-01-29T12:33:07.606Z,16.45
2023-01-29T12:36:35.870Z,27.87
2023-01-29T12:39:57.861Z,9.32
2023-01-29T12:43:23.837Z,10.10
2023-01-29T12:46:53.033Z,11.57
2023-01-29T12:50:21.305Z,7.65
2023-01-29T12:53:49.272Z,5.80
2023-01-29T12:57:22.858Z,7.13
2023-01-29T13:00:47.929Z,8.65
2023-01-29T13:04:16.103Z,12.85
2023-01-29T13:07:47.706Z,9.65
2023-01-29T13:11:15.050Z,10.77
2023-01-29T13:14:45.530Z,8.98
2023-01-29T13:18:30.438Z,4.07
2023-01-29T13:21:55.953Z,7.28
2023-01-29T13:25:20.641Z,7.30
2023-01-29T13:28:46.497Z,8.07
2023-01-29T13:32:10.663Z,5.60
2023-01-29T13:35:32.679Z,7.65
2023-01-29T13:39:01.843Z,11.77
2023-01-29T13:42:34.914Z,6.65
2023-01-29T13:45:56.773Z,10.57
2023-01-29T13:49:29.148Z,15.23
2023-01-29T13:52:56.490Z,12.35
2023-01-29T13:56:49.058Z,16.98
2023-01-29T14:01:01.395Z,25.67
2023-01-29T14:04:32.705Z,16.85
2023-01-29T14:07:54.654Z,19.52
2023-01-29T14:11:36.912Z,24.30
2023-01-29T14:15:06.016Z,21.52
2023-01-29T14:18:31.297Z,14.07
2023-01-29T14:22:03.931Z,19.48
2023-01-29T14:25:31.054Z,14.95
2023-01-29T14:29:02.969Z,35.92
2023-01-29T14:32:26.686Z,25.55
2023-01-29T14:35:53.858Z,25.33
2023-01-29T14:39:31.025Z,21.10
2023-01-29T14:43:00.930Z,20.45
2023-01-29T14:46:45.077Z,27.70
2023-01-29T14:50:43.872Z,32.35
2023-01-29T14:54:15.397Z,27.00
2023-01-29T14:57:38.910Z,41.28
2023-01-29T15:01:02.668Z,20.58
2023-01-29T15:04:28.886Z,26.77
2023-01-29T15:07:59.477Z,19.55
2023-01-29T15:11:37.221Z,14.82
2023-01-29T15:15:07.642Z,16.60
2023-01-29T15:18:36.095Z,12.02
2023-01-29T15:22:11.969Z,27.85
2023-01-29T15:25:48.261Z,36.95
2023-01-29T15:29:24.910Z,82.82
2023-01-29T15:32:48.353Z,225.63
2023-01-29T15:36:20.081Z,301.98
2023-01-29T15:39:45.151Z,123.15
2023-01-29T15:43:22.414Z,57.13
2023-01-29T15:46:48.391Z,36.10
2023-01-29T15:50:13.777Z,21.58
2023-01-29T15:53:39.485Z,41.33
2023-01-29T15:57:03.251Z,26.15
2023-01-29T16:00:29.872Z,25.08
2023-01-29T16:03:52.382Z,16.02
2023-01-29T16:07:15.053Z,23.65
2023-01-29T16:10:37.060Z,35.10
2023-01-29T16:14:00.153Z,32.25
2023-01-29T16:17:29.132Z,26.65
2023-01-29T16:20:53.850Z,29.42
2023-01-29T16:24:22.541Z,30.23
2023-01-29T16:27:46.002Z,58.85
2023-01-29T16:31:08.433Z,36.50
2023-01-29T16:34:34.439Z,31.48
2023-01-29T16:38:02.811Z,30.02
2023-01-29T16:41:33.294Z,25.42
2023-01-29T16:44:58.190Z,46.72
2023-01-29T16:48:29.058Z,35.97
2023-01-29T16:51:52.784Z,23.85
2023-01-29T16:55:23.301Z,20.90
2023-01-29T16:58:52.470Z,14.23
2023-01-29T17:05:45.806Z,13.10
2023-01-29T17:09:10.030Z,10.02
2023-01-29T17:12:33.540Z,14.13
2023-01-29T17:16:02.837Z,7.03
2023-01-29T17:19:25.973Z,9.27
2023-01-29T17:22:48.067Z,8.98
2023-01-29T17:26:14.209Z,9.48
2023-01-29T17:29:35.876Z,10.05
2023-01-29T17:32:57.923Z,6.40
2023-01-29T17:36:20.013Z,19.35
2023-01-29T17:39:42.591Z,15.82
2023-01-29T17:43:07.086Z,18.02
2023-01-29T17:46:29.020Z,19.95
2023-01-29T17:49:51.372Z,14.13
2023-01-29T17:53:13.138Z,11.38
2023-01-29T17:56:35.123Z,10.63
2023-01-29T17:59:58.601Z,8.68
2023-01-29T18:03:21.251Z,5.47
2023-01-29T18:06:44.351Z,24.17
2023-01-29T18:10:07.158Z,14.90
2023-01-29T18:13:29.428Z,77.07
2023-01-29T18:16:53.153Z,22.95
2023-01-29T18:20:20.400Z,38.40
2023-01-29T18:23:42.762Z,25.48
2023-01-29T18:27:04.629Z,21.73
2023-01-29T18:30:26.677Z,16.80
2023-01-29T18:33:50.189Z,10.55
2023-01-29T18:37:13.044Z,14.77
2023-01-29T18:40:35.038Z,13.00
2023-01-29T18:43:56.870Z,11.95
2023-01-29T18:47:19.249Z,5.90
2023-01-29T18:50:42.527Z,8.88
2023-01-29T18:54:05.172Z,11.48
2023-01-29T18:58:26.830Z,10.98
2023-01-29T19:01:12.019Z,7.68
2023-01-29T19:04:34.372Z,10.77
2023-01-29T19:07:57.788Z,12.75
2023-01-29T19:11:20.016Z,14.93
2023-01-29T19:14:42.148Z,10.30
2023-01-29T19:18:04.431Z,19.48
2023-01-29T19:21:27.305Z,6.95
2023-01-29T19:24:50.969Z,13.77
2023-01-29T19:28:13.203Z,9.90
2023-01-29T19:31:35.437Z,14.77
2023-01-29T19:34:57.920Z,13.10
2023-01-29T19:38:21.430Z,11.65
2023-01-29T19:41:44.692Z,13.65
2023-01-29T19:45:08.419Z,10.00
2023-01-29T19:48:30.780Z,5.05
2023-01-29T19:51:53.027Z,12.82
2023-01-29T19:55:15.453Z,8.05
2023-01-29T19:58:39.331Z,9.88
2023-01-29T20:02:01.298Z,12.35
2023-01-29T20:05:24.264Z,9.93
2023-01-29T20:08:46.876Z,7.55
2023-01-29T20:12:09.290Z,4.53
2023-01-29T20:15:32.801Z,6.78
2023-01-29T20:18:55.011Z,8.85
2023-01-29T20:22:37.170Z,14.48
2023-01-29T20:26:01.330Z,11.10
2023-01-29T20:29:23.680Z,10.13
2023-01-29T20:32:47.111Z,19.30
2023-01-29T20:36:12.241Z,20.08
2023-01-29T20:39:34.477Z,38.08
2023-01-29T20:42:57.281Z,28.95
2023-01-29T20:46:19.648Z,34.83
2023-01-29T20:49:43.064Z,21.58
2023-01-29T20:53:05.668Z,15.10
2023-01-29T20:56:36.692Z,10.25
2023-01-29T21:00:08.850Z,5.28
2023-01-29T21:03:30.809Z,5.65
2023-01-29T21:06:54.253Z,5.25
2023-01-29T21:10:16.709Z,4.82
2023-01-29T21:13:39.210Z,4.57
2023-01-29T21:17:03.325Z,6.97
2023-01-29T21:20:25.341Z,4.25
2023-01-29T21:23:49.153Z,5.40
2023-01-29T21:27:11.174Z,11.40
2023-01-29T21:30:33.963Z,4.00
2023-01-29T21:33:56.604Z,4.93
2023-01-29T21:37:18.739Z,4.43
2023-01-29T21:40:41.875Z,2.78
2023-01-29T21:44:03.915Z,2.33
2023-01-29T21:47:26.138Z,5.22
2023-01-29T21:50:48.809Z,6.68
2023-01-29T21:54:10.855Z,3.75
2023-01-29T21:57:34.145Z,2.47
2023-01-29T22:00:56.574Z,5.13
2023-01-29T22:04:38.460Z,2.85
2023-01-29T22:08:00.468Z,0.82
2023-01-29T22:11:22.269Z,3.67
2023-01-29T22:14:47.416Z,3.05
2023-01-29T22:18:09.308Z,2.80
2023-01-29T22:21:31.315Z,2.45
2023-01-29T22:24:54.985Z,4.10
2023-01-29T22:28:16.872Z,1.42
2023-01-29T22:31:40.331Z,2.47
2023-01-29T22:35:02.041Z,1.80
2023-01-29T22:38:24.137Z,1.77
2023-01-29T22:41:45.979Z,1.55
2023-01-29T22:45:09.556Z,1.58
2023-01-29T22:48:34.413Z,1.60
2023-01-29T22:55:24.606Z,2.00
2023-01-29T22:58:47.985Z,1.65
2023-01-29T23:02:10.665Z,1.35
2023-01-29T23:05:32.513Z,1.08
2023-01-29T23:08:54.355Z,2.15
2023-01-29T23:12:17.323Z,0.70
2023-01-29T23:15:39.390Z,1.45
2023-01-29T23:19:01.119Z,0.43
2023-01-29T23:22:23.121Z,0.88
2023-01-29T23:26:02.130Z,1.95
2023-01-29T23:29:25.567Z,0.77
2023-01-29T23:32:47.710Z,0.85
2023-01-29T23:36:10.516Z,0.45
2023-01-29T23:39:32.346Z,0.43
2023-01-29T23:42:54.204Z,0.20
2023-01-29T23:46:17.745Z,0.20
2023-01-29T23:49:39.892Z,0.30
2023-01-29T23:53:01.885Z,0.20
2023-01-29T23:56:24.051Z,0.10
2023-01-29T23:59:45.949Z,0.30
